Terminal Aerodrome Forecast
Issued by NWS

Home | Current Version | Previous Version | Text Only | Print | Product List | Glossary On
Versions: 1 2 3 4 5 6 7 8 9 10 11 12 13 14 15 16 17 18 19 20
483
FTUS43 KILX 261145 AAA
TAFBMI
TAF AMD
KBMI 261145Z 2612/2712 19006KT P6SM VCSH SCT006 OVC012
      TEMPO 2612/2614 BKN006
     FM262100 23010KT P6SM OVC012
     FM270100 24008KT P6SM OVC025
     FM270500 25008KT P6SM OVC012=

USA.gov is the U.S. government's official web portal to all federal, state and local government web resources and services.